Time;durP1;ratioP1;P1;durP2;ratioP2;P2;SDS_P1;SDS_P2;PMS_P1;PMS_P2;Temp;Humidity;BMP_temperature;BMP_pressure;BME280_temperature;BME280_humidity;BME280_pressure;Samples;Min_cycle;Max_cycle;Signal;HPM_P1;HPM_P2
2024/04/19 06:56:55;;;;;;;2.88;2.30;;;;;;;;;;13627761;21;2134496;-87
2024/04/19 07:01:56;;;;;;;5.95;4.38;;;;;;;;;;13691082;21;19992;-86
2024/04/19 07:06:58;;;;;;;2.28;1.50;;;;;;;;;;13692303;21;19987;-85
2024/04/19 07:11:58;;;;;;;;;;;;;;;;;;13760685;21;20006;-80
2024/04/19 07:16:59;;;;;;;2.85;2.10;;;;;;;;;;13779392;21;19921;-84
2024/04/19 07:22:00;;;;;;;;;;;;;;;;;;13747649;21;20020;-84
2024/04/19 07:27:01;;;;;;;3.30;3.00;;;;;;;;;;13698241;21;19930;-84
2024/04/19 07:32:02;;;;;;;3.65;2.63;;;;;;;;;;13695924;21;20104;-84
2024/04/19 07:37:03;;;;;;;;;;;;;;;;;;13743989;21;20003;-84
2024/04/19 07:42:05;;;;;;;3.33;2.50;;;;;;;;;;13743025;21;19927;-84
2024/04/19 07:47:09;;;;;;;3.25;2.72;;;;;;;;;;13745822;21;20073;-84
2024/04/19 07:52:10;;;;;;;3.70;2.25;;;;;;;;;;13744327;21;20004;-83
2024/04/19 07:57:11;;;;;;;;;;;;;;;;;;13746937;21;20028;-84
2024/04/19 08:02:12;;;;;;;3.42;2.20;;;;;;;;;;13751183;21;19933;-83
2024/04/19 08:07:13;;;;;;;2.42;1.98;;;;;;;;;;13704121;21;20392;-85
2024/04/19 08:12:14;;;;;;;;;;;;;;;;;;13745893;21;20004;-84
2024/04/19 08:17:15;;;;;;;2.30;2.05;;;;;;;;;;13742655;21;19928;-85
2024/04/19 08:22:17;;;;;;;2.20;1.60;;;;;;;;;;13766191;21;20016;-83
2024/04/19 08:27:18;;;;;;;2.13;1.75;;;;;;;;;;13772308;21;19999;-84
2024/04/19 08:32:19;;;;;;;2.95;2.40;;;;;;;;;;13743228;21;20003;-85
2024/04/19 08:37:21;;;;;;;2.78;1.73;;;;;;;;;;13694383;21;19999;-84
2024/04/19 08:42:22;;;;;;;2.17;1.60;;;;;;;;;;13737296;21;20412;-85
2024/04/19 08:47:24;;;;;;;5.80;2.47;;;;;;;;;;13739140;21;20020;-84
2024/04/19 08:52:25;;;;;;;2.40;1.90;;;;;;;;;;13739828;21;19999;-83
2024/04/19 08:57:27;;;;;;;4.18;3.17;;;;;;;;;;13737826;21;20007;-85
2024/04/19 09:02:28;;;;;;;3.25;2.35;;;;;;;;;;13736326;21;20103;-84
2024/04/19 09:07:32;;;;;;;3.25;2.70;;;;;;;;;;13750154;21;19991;-84
2024/04/19 09:12:34;;;;;;;4.63;2.78;;;;;;;;;;13739711;21;20404;-84
2024/04/19 09:17:35;;;;;;;2.55;1.70;;;;;;;;;;13737732;21;20428;-83
2024/04/19 09:22:36;;;;;;;2.65;1.30;;;;;;;;;;13734163;21;19996;-83
2024/04/19 09:27:39;;;;;;;3.78;2.53;;;;;;;;;;13746083;21;19992;-83
2024/04/19 09:32:40;;;;;;;2.35;1.70;;;;;;;;;;13757004;21;20068;-84
2024/04/19 09:37:43;;;;;;;3.40;2.45;;;;;;;;;;13770449;21;20089;-81
2024/04/19 09:42:48;;;;;;;2.95;1.80;;;;;;;;;;13759553;21;19996;-83
2024/04/19 09:47:53;;;;;;;2.70;1.80;;;;;;;;;;13736052;21;19991;-82
2024/04/19 09:52:57;;;;;;;1.85;1.23;;;;;;;;;;13743919;21;20000;-83
2024/04/19 09:57:58;;;;;;;2.38;1.30;;;;;;;;;;13743393;21;20002;-82
2024/04/19 10:03:01;;;;;;;2.08;1.30;;;;;;;;;;13736350;21;20344;-82
2024/04/19 10:08:03;;;;;;;2.03;1.35;;;;;;;;;;13736089;21;19996;-82
2024/04/19 10:13:04;;;;;;;3.20;1.40;;;;;;;;;;13690888;21;19992;-83
2024/04/19 10:18:06;;;;;;;3.50;1.98;;;;;;;;;;13739288;21;20371;-83
2024/04/19 10:23:12;;;;;;;2.42;1.55;;;;;;;;;;13692643;21;20400;-82
2024/04/19 10:28:16;;;;;;;2.53;1.52;;;;;;;;;;13745130;21;20091;-82
2024/04/19 10:33:17;;;;;;;8.32;6.75;;;;;;;;;;13745152;21;20430;-84
2024/04/19 10:38:19;;;;;;;3.60;2.60;;;;;;;;;;13745832;21;20430;-84
2024/04/19 10:43:20;;;;;;;4.22;0.80;;;;;;;;;;13711143;21;20012;-82
2024/04/19 10:48:22;;;;;;;2.47;1.33;;;;;;;;;;13733073;21;19992;-83
2024/04/19 10:53:23;;;;;;;2.55;1.13;;;;;;;;;;13700987;21;19987;-83
2024/04/19 10:58:24;;;;;;;1.95;1.00;;;;;;;;;;13745471;21;20106;-85
2024/04/19 11:03:26;;;;;;;3.50;1.50;;;;;;;;;;13700347;21;20440;-83
2024/04/19 11:08:27;;;;;;;2.50;1.23;;;;;;;;;;13703852;21;19991;-84
2024/04/19 11:13:28;;;;;;;3.05;1.30;;;;;;;;;;13756375;21;19991;-84
2024/04/19 11:18:29;;;;;;;2.40;1.48;;;;;;;;;;13748946;21;20023;-84
2024/04/19 11:23:30;;;;;;;2.05;1.10;;;;;;;;;;13705113;21;20006;-83
2024/04/19 11:28:31;;;;;;;1.67;0.85;;;;;;;;;;13754830;21;20006;-84
2024/04/19 11:33:32;;;;;;;1.33;0.75;;;;;;;;;;13754902;21;20050;-84
2024/04/19 11:38:34;;;;;;;5.15;3.95;;;;;;;;;;13757480;21;19995;-84
2024/04/19 11:43:35;;;;;;;2.08;1.00;;;;;;;;;;13761302;21;20007;-83
2024/04/19 11:48:36;;;;;;;5.38;4.82;;;;;;;;;;13762104;21;19996;-83
2024/04/19 11:53:37;;;;;;;1.90;1.50;;;;;;;;;;13760777;21;20095;-85
2024/04/19 11:58:38;;;;;;;1.85;1.33;;;;;;;;;;13704329;21;19992;-84
2024/04/19 12:03:40;;;;;;;2.65;1.00;;;;;;;;;;13743394;21;19999;-84
2024/04/19 12:08:41;;;;;;;1.88;1.27;;;;;;;;;;13741940;21;19996;-83
2024/04/19 12:13:46;;;;;;;1.20;0.70;;;;;;;;;;13695835;21;19995;-83
2024/04/19 12:18:47;;;;;;;1.67;1.17;;;;;;;;;;13742194;21;20066;-84
2024/04/19 12:23:48;;;;;;;3.97;1.33;;;;;;;;;;13650472;21;20026;-83
2024/04/19 12:28:49;;;;;;;2.38;1.42;;;;;;;;;;13736898;21;19995;-83
2024/04/19 12:33:50;;;;;;;;;;;;;;;;;;13740015;21;20003;-84
2024/04/19 12:38:52;;;;;;;2.17;0.40;;;;;;;;;;13740158;21;19949;-83
2024/04/19 12:43:53;;;;;;;0.60;0.40;;;;;;;;;;13738737;21;20003;-86
2024/04/19 12:48:54;;;;;;;;;;;;;;;;;;13737132;21;19996;-85
2024/04/19 12:54:07;;;;;;;3.22;1.00;;;;;;;;;;13775197;21;19920;-84
2024/04/19 12:59:15;;;;;;;1.65;0.73;;;;;;;;;;13849261;21;19995;-84
2024/04/19 13:04:22;;;;;;;1.33;0.60;;;;;;;;;;13854636;21;19987;-84
2024/04/19 13:21:27;;;;;;;1.00;0.32;;;;;;;;;;13606493;21;19983;-85
2024/04/19 13:26:30;;;;;;;0.70;0.45;;;;;;;;;;13854446;21;19995;-84
2024/04/19 13:31:41;;;;;;;1.33;0.70;;;;;;;;;;13851721;21;19991;-84
2024/04/19 13:36:51;;;;;;;1.48;0.75;;;;;;;;;;13802425;21;20285;-83
2024/04/19 13:41:52;;;;;;;1.63;0.45;;;;;;;;;;13847412;21;19995;-81
2024/04/19 13:46:54;;;;;;;1.00;0.50;;;;;;;;;;13801737;21;20318;-83
2024/04/19 13:52:00;;;;;;;1.70;0.70;;;;;;;;;;13799363;21;20002;-83
2024/04/19 13:57:01;;;;;;;2.67;0.82;;;;;;;;;;13815207;21;20497;-85
2024/04/19 14:02:28;;;;;;;5.05;0.63;;;;;;;;;;13810459;21;19987;-83
2024/04/19 14:07:35;;;;;;;3.50;0.60;;;;;;;;;;13857351;21;20003;-83
2024/04/19 14:12:36;;;;;;;0.90;0.47;;;;;;;;;;13813540;21;19997;-83
2024/04/19 14:17:37;;;;;;;;;;;;;;;;;;13862795;21;20037;-84
2024/04/19 14:23:06;;;;;;;1.70;0.50;;;;;;;;;;13861523;21;19970;-83
2024/04/19 14:28:07;;;;;;;1.63;0.50;;;;;;;;;;13850765;21;20041;-82
2024/04/19 14:33:12;;;;;;;;;;;;;;;;;;13846050;21;20064;-82
2024/04/19 14:38:13;;;;;;;1.88;0.90;;;;;;;;;;13799322;21;19928;-82
2024/04/19 14:43:14;;;;;;;3.65;1.00;;;;;;;;;;13862773;21;19995;-84
2024/04/19 14:48:20;;;;;;;2.45;0.90;;;;;;;;;;13858647;21;20303;-84
2024/04/19 14:53:40;;;;;;;1.75;0.90;;;;;;;;;;13845310;21;19987;-83
2024/04/19 14:59:02;;;;;;;2.75;1.10;;;;;;;;;;13859882;21;20014;-82
2024/04/19 15:04:26;;;;;;;2.97;1.23;;;;;;;;;;13849558;21;19998;-83
2024/04/19 15:15:41;;;;;;;4.72;1.60;;;;;;;;;;13866926;21;19995;-83
2024/04/19 15:20:51;;;;;;;4.95;1.30;;;;;;;;;;13827254;21;19987;-83
2024/04/19 15:26:11;;;;;;;6.35;1.38;;;;;;;;;;13845624;21;20037;-84
2024/04/19 15:31:15;;;;;;;4.87;1.50;;;;;;;;;;13852625;21;20101;-82
2024/04/19 15:36:44;;;;;;;4.60;1.25;;;;;;;;;;13848454;21;20311;-84
2024/04/19 15:41:46;;;;;;;5.20;1.13;;;;;;;;;;13800328;21;19987;-83
2024/04/19 15:47:08;;;;;;;3.95;1.00;;;;;;;;;;13802718;21;20061;-85
2024/04/19 15:52:17;;;;;;;2.58;1.00;;;;;;;;;;13761802;21;19991;-83
2024/04/19 15:57:41;;;;;;;2.70;0.75;;;;;;;;;;13850255;21;19999;-83
2024/04/19 16:02:42;;;;;;;6.57;1.30;;;;;;;;;;13800796;21;19983;-83
2024/04/19 16:08:18;;;;;;;5.72;1.08;;;;;;;;;;13853426;21;19987;-84
2024/04/19 16:13:44;;;;;;;3.92;1.10;;;;;;;;;;13516709;21;20029;-83
2024/04/19 16:19:06;;;;;;;1.83;0.60;;;;;;;;;;13617468;21;19992;-84
2024/04/19 16:24:55;;;;;;;5.20;1.00;;;;;;;;;;13628271;21;20024;-85
2024/04/19 16:30:27;;;;;;;4.07;0.90;;;;;;;;;;13305925;22;20135;-86
2024/04/19 16:35:33;;;;;;;2.47;0.70;;;;;;;;;;13266109;22;19991;-86
2024/04/19 16:40:34;;;;;;;3.47;0.90;;;;;;;;;;13263009;21;20096;-86
2024/04/19 16:45:35;;;;;;;2.72;0.98;;;;;;;;;;13799555;21;20041;-85
2024/04/19 16:50:36;;;;;;;;;;;;;;;;;;13850827;21;20057;-85
2024/04/19 16:55:37;;;;;;;3.08;0.77;;;;;;;;;;13843531;21;19920;-85
2024/04/19 17:00:39;;;;;;;3.47;0.85;;;;;;;;;;13798766;21;20060;-85
2024/04/19 17:05:40;;;;;;;4.68;1.20;;;;;;;;;;13801586;21;20055;-86
2024/04/19 17:10:41;;;;;;;;;;;;;;;;;;13797306;21;20060;-85
2024/04/19 17:15:42;;;;;;;2.50;0.70;;;;;;;;;;13845175;21;19921;-86
2024/04/19 17:20:43;;;;;;;3.03;0.60;;;;;;;;;;13796262;21;19983;-85
2024/04/19 17:25:46;;;;;;;2.15;0.50;;;;;;;;;;13800209;21;19983;-85
2024/04/19 17:30:47;;;;;;;1.42;0.65;;;;;;;;;;13803824;21;19987;-86
2024/04/19 17:35:48;;;;;;;2.05;0.40;;;;;;;;;;13796737;21;20502;-86
2024/04/19 17:40:49;;;;;;;1.17;0.47;;;;;;;;;;13795471;21;20064;-86
2024/04/19 17:45:50;;;;;;;1.52;0.60;;;;;;;;;;13796075;21;20074;-85
2024/04/19 17:50:53;;;;;;;1.20;0.40;;;;;;;;;;13842709;21;19991;-85
2024/04/19 17:55:54;;;;;;;2.45;0.60;;;;;;;;;;13795731;21;19994;-85
2024/04/19 18:00:55;;;;;;;1.48;0.50;;;;;;;;;;13844277;21;19997;-84
2024/04/19 18:05:57;;;;;;;;;;;;;;;;;;13795889;21;20023;-84
2024/04/19 18:10:59;;;;;;;2.25;0.52;;;;;;;;;;13794895;21;19932;-85
2024/04/19 18:16:02;;;;;;;2.42;0.70;;;;;;;;;;13802130;21;19991;-85
2024/04/19 18:21:03;;;;;;;2.85;0.70;;;;;;;;;;13800446;21;20002;-85
2024/04/19 18:26:06;;;;;;;;;;;;;;;;;;13843706;21;19987;-83
2024/04/19 18:31:07;;;;;;;3.15;0.80;;;;;;;;;;13799062;21;19928;-85
2024/04/19 18:36:09;;;;;;;2.20;0.57;;;;;;;;;;13841788;21;20380;-85
2024/04/19 18:41:10;;;;;;;1.95;0.70;;;;;;;;;;13794735;21;20366;-85
2024/04/19 18:46:11;;;;;;;;;;;;;;;;;;13799641;21;19998;-85
2024/04/19 18:51:13;;;;;;;1.88;0.50;;;;;;;;;;13803763;21;19931;-85
2024/04/19 18:56:14;;;;;;;4.70;0.80;;;;;;;;;;13805774;21;20038;-85
2024/04/19 19:01:15;;;;;;;1.60;0.50;;;;;;;;;;13858692;21;20349;-84
